Greenfield, IL (62044)

1:52 PM CST on February 12, 2016 (GMT -0600)
Rural Macoupin County | | Change Station
CLOSE
Current Station
Personal Weather Station
Location: Carlinville, IL
Elevation: 614 ft
Nearby Weather Stations

Elev 614 ft 39.23 °N, 89.95 °W | Updated 3 minutes ago

Overcast
Overcast
27.0 °F
Feels Like 18 °F
N
9.4
Wind Variable Wind from North

Today
High -- | Low -- °F
--% Chance of Precip.
Yesterday
High -- | Low -- °F
Precip. -- in
Pressure 30.30 in
Visibility 10.0 miles
Clouds Mostly Cloudy 2900 ft
Windchill 18 °F
Dew Point 20 °F
Humidity 76%
Rainfall 0.00 in
Snow Depth Not available.
6:56 AM 5:33 PM
Waxing Crescent, 23% visible
METAR KIJX 121935Z AUTO 31017G25KT 10SM BKN029 M02/M08 A3030 RMK AO2 T10211076
Pressure 30.30 in
Visibility 10.0 miles
Clouds Mostly Cloudy 2900 ft
Windchill 18 °F
Dew Point 20 °F
Humidity 76%
Rainfall 0.00 in
Snow Depth Not available.
6:56 AM 5:33 PM
Waxing Crescent, 23% visible
METAR KIJX 121935Z AUTO 31017G25KT 10SM BKN029 M02/M08 A3030 RMK AO2 T10211076

10-Day Weather Forecast

Almanac

Astronomy

Feb. 12, 2016 Rise Set
Actual Time
Civil Twilight
Nautical Twilight
Astronomical Twilight
Moon
Length of Visible Light
Length of Day
Tomorrow will be .
, % of the Moon is Illuminated

Today's Extremes

State Highs State Lows

Community

WunderPhotos

Upload Photos

1,892,381 photos uploaded!

WunderBlog® & News

Nearby

Air Quality

  Air Quality AQ Index Pollutant
Not available.

Snow Depth

Station Depth Elevation

Earthquake Activity

City Distance Mag. Time & Date
Minimum magnitude displayed is 2.5.

Coastal Water Temperatures

Place Temperature

Stations

Nearby Weather Stations

Station Location Temp. Windchill Dew Point Humidity Wind Precip. Elev Updated Type
                   

Watches & Warnings

There are currently no watches in effect.